createdAt,value
2023-08-11T00:02:00.136Z,100232.31
2023-08-11T00:04:44.206Z,100214.75
2023-08-11T00:07:28.806Z,100222.41
2023-08-11T00:10:13.745Z,100195.78
2023-08-11T00:12:57.978Z,100206.66
2023-08-11T00:15:42.454Z,100192.84
2023-08-11T00:18:28.007Z,100205.16
2023-08-11T00:21:13.950Z,100221.94
2023-08-11T00:23:57.989Z,100206.81
2023-08-11T00:26:42.198Z,100185.88
2023-08-11T00:29:26.416Z,100214.16
2023-08-11T00:32:11.089Z,100188.56
2023-08-11T00:34:56.628Z,100216.84
2023-08-11T00:37:40.906Z,100186.38
2023-08-11T00:40:25.063Z,100175.34
2023-08-11T00:43:10.054Z,100190.66
2023-08-11T00:45:54.660Z,100187.16
2023-08-11T00:48:39.391Z,100187.66
2023-08-11T00:51:26.781Z,100172.75
2023-08-11T00:54:13.198Z,100205.84
2023-08-11T00:56:58.137Z,100206.13
2023-08-11T00:59:42.978Z,100221.41
2023-08-11T01:02:29.076Z,100228.19
2023-08-11T01:05:15.562Z,100214.38
2023-08-11T01:08:13.897Z,100198.97
2023-08-11T01:11:08.647Z,100232.69
2023-08-11T01:13:59.306Z,100221.28
2023-08-11T01:16:44.725Z,100212.19
2023-08-11T01:19:33.838Z,100206.81
2023-08-11T01:22:21.379Z,100222.97
2023-08-11T01:25:09.461Z,100201.22
2023-08-11T01:27:56.465Z,100226.75
2023-08-11T01:30:41.121Z,100218.63
2023-08-11T01:33:25.150Z,100189.28
2023-08-11T01:36:10.917Z,100232.31
2023-08-11T01:38:55.124Z,100183.75
2023-08-11T01:41:41.482Z,100196.66
2023-08-11T01:44:26.682Z,100225.78
2023-08-11T01:47:12.031Z,100214.00
2023-08-11T01:49:56.180Z,100209.78
2023-08-11T01:52:42.800Z,100241.66
2023-08-11T01:55:30.339Z,100213.50
2023-08-11T01:58:16.230Z,100245.69
2023-08-11T02:01:00.384Z,100215.09
2023-08-11T02:03:44.510Z,100237.41
2023-08-11T02:06:28.746Z,100223.56
2023-08-11T02:09:13.844Z,100240.81
2023-08-11T02:11:58.373Z,100206.81
2023-08-11T02:14:43.850Z,100212.88
2023-08-11T02:17:28.096Z,100206.09
2023-08-11T02:20:19.435Z,100219.44
2023-08-11T02:23:03.530Z,100204.25
2023-08-11T02:25:47.867Z,100237.72
2023-08-11T02:28:31.855Z,100243.44
2023-08-11T02:31:19.764Z,100223.31
2023-08-11T02:34:04.052Z,100240.59
2023-08-11T02:36:48.530Z,100208.25
2023-08-11T02:39:32.800Z,100176.25
2023-08-11T02:42:16.846Z,100203.91
2023-08-11T02:45:01.319Z,100225.69
2023-08-11T02:47:47.519Z,100208.47
2023-08-11T02:50:31.645Z,100190.03
2023-08-11T02:53:15.889Z,100203.59
2023-08-11T02:56:02.309Z,100235.97
2023-08-11T02:58:46.907Z,100243.66
2023-08-11T03:01:31.157Z,100241.00
2023-08-11T03:04:17.697Z,100236.22
2023-08-11T03:07:06.751Z,100229.56
2023-08-11T03:09:51.991Z,100234.66
2023-08-11T03:12:37.237Z,100225.94
2023-08-11T03:15:22.185Z,100228.34
2023-08-11T03:18:07.123Z,100248.03
2023-08-11T03:21:00.497Z,100219.94
2023-08-11T03:23:50.798Z,100235.31
2023-08-11T03:26:37.023Z,100211.41
2023-08-11T03:29:22.861Z,100244.38
2023-08-11T03:32:07.976Z,100230.44
2023-08-11T03:34:52.325Z,100258.59
2023-08-11T03:37:37.907Z,100268.41
2023-08-11T03:40:22.485Z,100230.78
2023-08-11T03:43:10.119Z,100205.34
2023-08-11T03:45:55.491Z,100241.88
2023-08-11T03:48:39.784Z,100268.41
2023-08-11T03:51:23.957Z,100249.97
2023-08-11T03:54:10.927Z,100235.28
2023-08-11T03:56:56.007Z,100238.94
2023-08-11T03:59:41.527Z,100257.13
2023-08-11T04:02:27.814Z,100275.94
2023-08-11T04:05:12.442Z,100267.28
2023-08-11T04:07:56.664Z,100247.66
2023-08-11T04:10:43.512Z,100250.94
2023-08-11T04:13:27.686Z,100248.72
2023-08-11T04:16:11.925Z,100263.19
2023-08-11T04:18:56.073Z,100266.34
2023-08-11T04:21:42.155Z,100264.28
2023-08-11T04:24:26.363Z,100271.41
2023-08-11T04:27:12.081Z,100286.56
2023-08-11T04:29:56.359Z,100261.59
2023-08-11T04:32:40.724Z,100277.59
2023-08-11T04:35:25.479Z,100267.75
2023-08-11T04:38:10.635Z,100261.31
2023-08-11T04:40:55.636Z,100268.13
2023-08-11T04:43:41.280Z,100295.53
2023-08-11T04:46:25.622Z,100290.56
2023-08-11T04:49:09.903Z,100282.81
2023-08-11T04:51:54.170Z,100275.97
2023-08-11T04:54:38.333Z,100278.69
2023-08-11T04:57:22.611Z,100266.66
2023-08-11T05:00:15.407Z,100306.34
2023-08-11T05:02:59.670Z,100264.19
2023-08-11T05:05:46.266Z,100305.72
2023-08-11T05:08:30.464Z,100297.03
2023-08-11T05:11:14.585Z,100294.84
2023-08-11T05:13:58.868Z,100290.97
2023-08-11T05:16:45.141Z,100272.00
2023-08-11T05:19:29.288Z,100282.63
2023-08-11T05:22:13.877Z,100303.75
2023-08-11T05:24:58.484Z,100316.56
2023-08-11T05:27:42.736Z,100282.88
2023-08-11T05:30:29.198Z,100300.50
2023-08-11T05:33:15.151Z,100293.88
2023-08-11T05:35:59.480Z,100299.97
2023-08-11T05:38:43.550Z,100278.13
2023-08-11T05:41:27.752Z,100260.25
2023-08-11T05:44:11.808Z,100288.72
2023-08-11T05:46:55.931Z,100287.09
2023-08-11T05:49:42.190Z,100295.16
2023-08-11T05:52:26.345Z,100322.28
2023-08-11T05:55:11.226Z,100282.84
2023-08-11T05:57:55.429Z,100294.19
2023-08-11T06:00:39.693Z,100297.00
2023-08-11T06:03:31.142Z,100297.28
2023-08-11T06:06:18.168Z,100253.38
2023-08-11T06:09:02.258Z,100281.03
2023-08-11T06:11:46.556Z,100287.53
2023-08-11T06:14:30.854Z,100318.75
2023-08-11T06:17:15.065Z,100333.44
2023-08-11T06:19:59.860Z,100294.03
2023-08-11T06:22:45.538Z,100294.75
2023-08-11T06:25:30.136Z,100320.00
2023-08-11T06:28:15.535Z,100329.88
2023-08-11T06:31:00.084Z,100320.28
2023-08-11T06:33:44.308Z,100324.44
2023-08-11T06:36:28.478Z,100333.53
2023-08-11T06:39:14.325Z,100319.47
2023-08-11T06:41:58.489Z,100302.91
2023-08-11T06:45:02.534Z,100280.66
2023-08-11T06:47:49.606Z,100323.94
2023-08-11T06:50:34.019Z,100263.81
2023-08-11T06:53:18.777Z,100295.97
2023-08-11T06:56:04.349Z,100287.16
2023-08-11T06:58:48.635Z,100294.75
2023-08-11T07:01:32.831Z,100299.75
2023-08-11T07:04:16.987Z,100331.59
2023-08-11T07:07:01.102Z,100295.66
2023-08-11T07:09:45.377Z,100326.31
2023-08-11T07:12:31.022Z,100330.53
2023-08-11T07:15:15.386Z,100330.28
2023-08-11T07:17:59.552Z,100333.72
2023-08-11T07:20:44.346Z,100337.78
2023-08-11T07:23:28.777Z,100308.59
2023-08-11T07:26:12.902Z,100326.78
2023-08-11T07:28:58.577Z,100325.66
2023-08-11T07:31:42.773Z,100337.34
2023-08-11T07:34:27.001Z,100340.50
2023-08-11T07:37:11.616Z,100320.09
2023-08-11T07:39:55.955Z,100322.50
2023-08-11T07:42:40.148Z,100318.63
2023-08-11T07:45:25.892Z,100343.81
2023-08-11T07:48:09.966Z,100348.09
2023-08-11T07:50:54.302Z,100346.34
2023-08-11T07:53:39.604Z,100318.44
2023-08-11T07:56:23.796Z,100316.03
2023-08-11T07:59:07.955Z,100324.31
2023-08-11T08:01:54.322Z,100325.72
2023-08-11T08:04:38.420Z,100335.28
2023-08-11T08:07:24.673Z,100342.78
2023-08-11T08:10:10.654Z,100333.56
2023-08-11T08:12:54.942Z,100347.41
2023-08-11T08:15:39.367Z,100309.75
2023-08-11T08:18:25.252Z,100337.78
2023-08-11T08:21:09.715Z,100319.19
2023-08-11T08:23:53.949Z,100353.81
2023-08-11T08:26:38.345Z,100354.19
2023-08-11T08:29:22.616Z,100342.88
2023-08-11T08:32:07.243Z,100321.25
2023-08-11T08:34:52.910Z,100326.34
2023-08-11T08:37:37.267Z,100329.91
2023-08-11T08:40:21.394Z,100338.84
2023-08-11T08:43:06.210Z,100328.06
2023-08-11T08:45:53.180Z,100319.56
2023-08-11T08:48:45.680Z,100345.22
2023-08-11T08:51:32.140Z,100325.63
2023-08-11T08:54:16.639Z,100345.00
2023-08-11T08:57:02.354Z,100325.19
2023-08-11T08:59:46.578Z,100317.50
2023-08-11T09:02:31.880Z,100317.69
2023-08-11T09:05:16.443Z,100355.03
2023-08-11T09:08:02.173Z,100324.09
2023-08-11T09:10:46.540Z,100326.34
2023-08-11T09:13:30.622Z,100299.19
2023-08-11T09:16:16.852Z,100301.16
2023-08-11T09:19:01.195Z,100319.38
2023-08-11T09:22:11.548Z,100355.47
2023-08-11T09:24:57.329Z,100331.97
2023-08-11T09:27:41.399Z,100366.84
2023-08-11T09:30:25.555Z,100367.59
2023-08-11T09:33:09.803Z,100304.31
2023-08-11T09:35:54.964Z,100329.81
2023-08-11T09:38:39.204Z,100293.06
2023-08-11T09:41:24.938Z,100357.03
2023-08-11T09:44:09.521Z,100319.47
2023-08-11T09:46:54.678Z,100337.63
2023-08-11T09:49:39.080Z,100323.31
2023-08-11T09:52:23.480Z,100327.72
2023-08-11T09:55:11.376Z,100328.28
2023-08-11T09:57:58.939Z,100353.31
2023-08-11T10:00:44.385Z,100332.53
2023-08-11T10:03:35.066Z,100327.59
2023-08-11T10:06:24.008Z,100336.78
2023-08-11T10:09:12.793Z,100348.94
2023-08-11T10:12:00.995Z,100366.13
2023-08-11T10:14:46.551Z,100333.56
2023-08-11T10:17:31.157Z,100330.53
2023-08-11T10:20:16.832Z,100336.94
2023-08-11T10:23:01.815Z,100373.19
2023-08-11T10:25:46.788Z,100313.44
2023-08-11T10:28:31.530Z,100359.84
2023-08-11T10:31:16.927Z,100325.97
2023-08-11T10:34:01.283Z,100353.41
2023-08-11T10:36:46.321Z,100343.50
2023-08-11T10:39:30.398Z,100351.31
2023-08-11T10:42:15.872Z,100333.84
2023-08-11T10:45:10.890Z,100311.25
2023-08-11T10:47:57.258Z,100338.06
2023-08-11T10:50:41.734Z,100308.34
2023-08-11T10:53:25.874Z,100344.28
2023-08-11T10:56:11.928Z,100327.69
2023-08-11T10:59:06.814Z,100358.88
2023-08-11T11:01:52.392Z,100348.69
2023-08-11T11:04:37.834Z,100346.72
2023-08-11T11:07:24.488Z,100354.75
2023-08-11T11:10:10.184Z,100361.31
2023-08-11T11:12:54.283Z,100324.81
2023-08-11T11:15:38.506Z,100345.78
2023-08-11T11:18:22.678Z,100323.22
2023-08-11T11:21:08.261Z,100349.56
2023-08-11T11:23:54.197Z,100343.97
2023-08-11T11:26:38.681Z,100317.13
2023-08-11T11:29:25.560Z,100355.53
2023-08-11T11:32:10.016Z,100326.28
2023-08-11T11:34:55.701Z,100313.63
2023-08-11T11:37:43.207Z,100335.50
2023-08-11T11:40:27.297Z,100322.25
2023-08-11T11:43:12.975Z,100321.88
2023-08-11T11:45:59.486Z,100338.28
2023-08-11T11:48:45.795Z,100344.69
2023-08-11T11:51:31.761Z,100346.13
2023-08-11T11:54:17.251Z,100306.53
2023-08-11T11:57:05.218Z,100316.63
2023-08-11T11:59:50.608Z,100341.13
2023-08-11T12:02:34.679Z,100313.16
2023-08-11T12:05:19.491Z,100305.34
2023-08-11T12:08:19.524Z,100315.81
2023-08-11T12:11:06.492Z,100323.34
2023-08-11T12:13:51.002Z,100348.75
2023-08-11T12:16:35.389Z,100328.91
2023-08-11T12:19:20.811Z,100343.50
2023-08-11T12:22:05.420Z,100325.28
2023-08-11T12:24:49.842Z,100330.34
2023-08-11T12:27:38.499Z,100315.53
2023-08-11T12:30:22.631Z,100325.44
2023-08-11T12:33:07.813Z,100302.78
2023-08-11T12:35:51.992Z,100315.25
2023-08-11T12:38:36.673Z,100334.59
2023-08-11T12:41:21.412Z,100335.81
2023-08-11T12:44:07.772Z,100333.63
2023-08-11T12:46:52.101Z,100302.97
2023-08-11T12:49:36.650Z,100336.09
2023-08-11T12:52:20.805Z,100344.75
2023-08-11T12:55:05.716Z,100336.31
2023-08-11T12:57:49.971Z,100331.91
2023-08-11T13:00:36.433Z,100333.19
2023-08-11T13:03:20.599Z,100322.88
2023-08-11T13:06:04.963Z,100304.31
2023-08-11T13:08:51.220Z,100329.59
2023-08-11T13:11:35.739Z,100317.53
2023-08-11T13:14:21.947Z,100315.66
2023-08-11T13:17:08.183Z,100344.09
2023-08-11T13:19:52.272Z,100348.47
2023-08-11T13:22:36.557Z,100323.47
2023-08-11T13:25:21.025Z,100319.63
2023-08-11T13:28:05.828Z,100283.50
2023-08-11T13:30:49.873Z,100316.56
2023-08-11T13:33:35.832Z,100331.63
2023-08-11T13:36:20.076Z,100343.22
2023-08-11T13:39:04.513Z,100329.03
2023-08-11T13:41:49.083Z,100345.09
2023-08-11T13:44:33.602Z,100340.94
2023-08-11T13:47:18.321Z,100337.59
2023-08-11T13:50:04.318Z,100316.78
2023-08-11T13:52:48.425Z,100311.34
2023-08-11T13:55:34.312Z,100334.53
2023-08-11T13:58:18.397Z,100307.09
2023-08-11T14:01:04.510Z,100337.91
2023-08-11T14:03:48.515Z,100310.88
2023-08-11T14:06:34.014Z,100344.06
2023-08-11T14:09:18.113Z,100313.66
2023-08-11T14:12:02.135Z,100329.25
2023-08-11T14:14:46.359Z,100305.56
2023-08-11T14:17:30.593Z,100339.47
2023-08-11T14:20:14.820Z,100308.03
2023-08-11T14:23:00.480Z,100298.00
2023-08-11T14:25:46.370Z,100337.00
2023-08-11T14:28:30.676Z,100332.94
2023-08-11T14:31:14.846Z,100319.09
2023-08-11T14:33:59.070Z,100327.44
2023-08-11T14:36:43.128Z,100301.75
2023-08-11T14:39:28.736Z,100324.75
2023-08-11T14:42:12.946Z,100310.72
2023-08-11T14:44:57.012Z,100308.00
2023-08-11T14:47:42.134Z,100312.69
2023-08-11T14:50:26.336Z,100293.94
2023-08-11T14:53:10.374Z,100298.53
2023-08-11T14:55:55.918Z,100331.97
2023-08-11T14:58:39.882Z,100302.66
2023-08-11T15:01:24.099Z,100326.56
2023-08-11T15:04:08.191Z,100300.00
2023-08-11T15:06:52.757Z,100321.50
2023-08-11T15:09:38.234Z,100324.81
2023-08-11T15:12:24.383Z,100305.38
2023-08-11T15:15:09.412Z,100321.66
2023-08-11T15:17:53.643Z,100305.28
2023-08-11T15:20:37.732Z,100303.25
2023-08-11T15:23:21.826Z,100297.47
2023-08-11T15:26:06.199Z,100307.84
2023-08-11T15:28:51.872Z,100306.72
2023-08-11T15:31:36.138Z,100309.56
2023-08-11T15:34:20.353Z,100311.25
2023-08-11T15:37:04.494Z,100305.28
2023-08-11T15:39:48.691Z,100333.69
2023-08-11T15:42:32.824Z,100329.69
2023-08-11T15:45:18.613Z,100310.94
2023-08-11T15:48:02.864Z,100348.00
2023-08-11T15:50:47.198Z,100346.94
2023-08-11T15:53:31.248Z,100328.78
2023-08-11T15:56:15.432Z,100348.06
2023-08-11T15:58:59.770Z,100350.06
2023-08-11T16:02:03.541Z,100315.69
2023-08-11T16:04:53.109Z,100310.09
2023-08-11T16:07:37.264Z,100333.97
2023-08-11T16:10:21.260Z,100325.44
2023-08-11T16:13:08.112Z,100353.63
2023-08-11T16:15:53.986Z,100357.38
2023-08-11T16:18:39.576Z,100361.59
2023-08-11T16:21:23.875Z,100325.16
2023-08-11T16:24:08.044Z,100362.31
2023-08-11T16:26:52.321Z,100332.72
2023-08-11T16:29:42.086Z,100335.38
2023-08-11T16:32:26.589Z,100343.72
2023-08-11T16:35:12.068Z,100362.97
2023-08-11T16:37:56.206Z,100361.78
2023-08-11T16:40:40.502Z,100372.34
2023-08-11T16:43:24.991Z,100369.09
2023-08-11T16:46:09.113Z,100374.03
2023-08-11T16:48:53.575Z,100376.53
2023-08-11T16:51:39.235Z,100347.47
2023-08-11T16:54:23.333Z,100366.50
2023-08-11T16:57:07.560Z,100357.53
2023-08-11T16:59:51.814Z,100363.78
2023-08-11T17:02:36.041Z,100375.59
2023-08-11T17:05:20.116Z,100399.53
2023-08-11T17:08:06.286Z,100409.50
2023-08-11T17:10:50.338Z,100381.53
2023-08-11T17:13:34.354Z,100399.59
2023-08-11T17:16:20.342Z,100374.97
2023-08-11T17:19:04.715Z,100360.13
2023-08-11T17:21:49.482Z,100415.88
2023-08-11T17:24:35.258Z,100416.53
2023-08-11T17:27:19.364Z,100434.06
2023-08-11T17:30:03.330Z,100431.00
2023-08-11T17:32:49.359Z,100403.00
2023-08-11T17:35:33.613Z,100381.06
2023-08-11T17:38:17.805Z,100442.88
2023-08-11T17:41:03.513Z,100414.84
2023-08-11T17:43:47.524Z,100452.38
2023-08-11T17:46:31.698Z,100419.56
2023-08-11T17:49:15.845Z,100421.72
2023-08-11T17:52:00.099Z,100432.47
2023-08-11T17:54:44.159Z,100431.44
2023-08-11T17:57:29.833Z,100447.53
2023-08-11T18:00:15.830Z,100433.47
2023-08-11T18:02:59.949Z,100455.78
2023-08-11T18:05:44.607Z,100425.41
2023-08-11T18:08:28.765Z,100463.69
2023-08-11T18:11:12.931Z,100421.56
2023-08-11T18:13:58.524Z,100443.66
2023-08-11T18:16:42.669Z,100456.81
2023-08-11T18:19:26.830Z,100478.81
2023-08-11T18:22:11.231Z,100450.88
2023-08-11T18:24:55.511Z,100445.78
2023-08-11T18:27:39.726Z,100473.09
2023-08-11T18:30:25.287Z,100484.00
2023-08-11T18:33:09.440Z,100483.16
2023-08-11T18:35:53.555Z,100488.38
2023-08-11T18:38:37.673Z,100486.22
2023-08-11T18:41:21.949Z,100485.41
2023-08-11T18:44:06.776Z,100445.41
2023-08-11T18:46:52.522Z,100419.06
2023-08-11T18:49:36.623Z,100479.94
2023-08-11T18:52:21.031Z,100465.53
2023-08-11T18:55:05.318Z,100481.38
2023-08-11T18:57:49.457Z,100475.72
2023-08-11T19:00:33.503Z,100458.34
2023-08-11T19:03:19.425Z,100452.50
2023-08-11T19:06:03.715Z,100489.84
2023-08-11T19:08:47.765Z,100454.25
2023-08-11T19:11:31.760Z,100443.66
2023-08-11T19:14:15.868Z,100453.69
2023-08-11T19:16:59.956Z,100484.00
2023-08-11T19:19:48.527Z,100502.94
2023-08-11T19:22:32.543Z,100461.16
2023-08-11T19:25:16.852Z,100470.09
2023-08-11T19:28:01.244Z,100486.63
2023-08-11T19:30:45.406Z,100498.81
2023-08-11T19:33:29.542Z,100475.31
2023-08-11T19:36:15.017Z,100487.75
2023-08-11T19:39:00.601Z,100456.41
2023-08-11T19:41:44.666Z,100457.53
2023-08-11T19:44:28.808Z,100495.13
2023-08-11T19:47:12.933Z,100495.28
2023-08-11T19:49:57.073Z,100501.91
2023-08-11T19:52:42.651Z,100472.38
2023-08-11T19:55:26.692Z,100463.19
2023-08-11T19:58:10.823Z,100459.50
2023-08-11T20:00:54.833Z,100492.31
2023-08-11T20:03:38.968Z,100468.84
2023-08-11T20:06:23.068Z,100472.53
2023-08-11T20:09:09.383Z,100499.53
2023-08-11T20:11:53.825Z,100494.69
2023-08-11T20:14:37.998Z,100456.69
2023-08-11T20:17:22.053Z,100459.59
2023-08-11T20:20:07.633Z,100458.75
2023-08-11T20:22:51.728Z,100458.50
2023-08-11T20:25:37.810Z,100492.56
2023-08-11T20:28:25.201Z,100454.69
2023-08-11T20:31:09.461Z,100488.13
2023-08-11T20:33:53.899Z,100460.25
2023-08-11T20:36:37.882Z,100419.84
2023-08-11T20:39:23.019Z,100486.22
2023-08-11T20:42:08.895Z,100455.47
2023-08-11T20:44:53.297Z,100455.34
2023-08-11T20:47:37.483Z,100455.56
2023-08-11T20:50:21.645Z,100489.19
2023-08-11T20:53:06.019Z,100490.03
2023-08-11T20:55:50.124Z,100461.63
2023-08-11T20:58:35.593Z,100458.09
2023-08-11T21:01:19.753Z,100463.28
2023-08-11T21:04:03.992Z,100480.94
2023-08-11T21:06:48.848Z,100460.25
2023-08-11T21:09:34.030Z,100458.28
2023-08-11T21:12:18.085Z,100494.19
2023-08-11T21:15:04.288Z,100486.84
2023-08-11T21:17:49.327Z,100458.53
2023-08-11T21:20:33.636Z,100453.13
2023-08-11T21:23:20.462Z,100484.41
2023-08-11T21:26:05.098Z,100485.38
2023-08-11T21:28:49.172Z,100481.72
2023-08-11T21:31:34.771Z,100483.06
2023-08-11T21:34:19.444Z,100490.22
2023-08-11T21:37:03.573Z,100465.06
2023-08-11T21:39:47.955Z,100480.44
2023-08-11T21:42:32.072Z,100447.84
2023-08-11T21:45:16.213Z,100444.72
2023-08-11T21:48:01.961Z,100425.97
2023-08-11T21:50:46.061Z,100435.94
2023-08-11T21:53:30.090Z,100437.66
2023-08-11T21:56:14.254Z,100476.75
2023-08-11T21:58:58.515Z,100441.31
2023-08-11T22:01:43.829Z,100438.09
2023-08-11T22:04:29.382Z,100444.59
2023-08-11T22:07:14.262Z,100460.00
2023-08-11T22:09:58.599Z,100440.63
2023-08-11T22:12:42.634Z,100431.28
2023-08-11T22:15:26.744Z,100439.81
2023-08-11T22:18:10.907Z,100456.06
2023-08-11T22:20:56.447Z,100434.59
2023-08-11T22:23:40.576Z,100433.84
2023-08-11T22:26:24.648Z,100467.78
2023-08-11T22:29:08.689Z,100462.53
2023-08-11T22:31:52.892Z,100439.88
2023-08-11T22:34:37.027Z,100458.00
2023-08-11T22:37:24.028Z,100468.56
2023-08-11T22:40:09.568Z,100426.53
2023-08-11T22:42:53.719Z,100444.38
2023-08-11T22:45:37.868Z,100464.69
2023-08-11T22:48:22.300Z,100427.78
2023-08-11T22:51:06.422Z,100438.38
2023-08-11T22:53:52.003Z,100467.28
2023-08-11T22:56:36.257Z,100470.38
2023-08-11T22:59:21.328Z,100466.72
2023-08-11T23:02:05.963Z,100437.75
2023-08-11T23:04:51.066Z,100460.78
2023-08-11T23:07:35.240Z,100467.34
2023-08-11T23:10:20.958Z,100461.66
2023-08-11T23:13:05.283Z,100437.19
2023-08-11T23:15:49.406Z,100479.50
2023-08-11T23:18:33.481Z,100432.59
2023-08-11T23:21:17.699Z,100475.25
2023-08-11T23:24:01.881Z,100459.13
2023-08-11T23:26:47.442Z,100445.56
2023-08-11T23:29:31.469Z,100464.66
2023-08-11T23:32:15.530Z,100433.25
2023-08-11T23:34:59.684Z,100446.16
2023-08-11T23:37:43.939Z,100442.44
2023-08-11T23:40:28.045Z,100463.28
2023-08-11T23:43:13.893Z,100443.19
2023-08-11T23:45:58.203Z,100430.31
2023-08-11T23:48:43.505Z,100469.34
2023-08-11T23:51:28.665Z,100424.22
2023-08-11T23:54:12.734Z,100470.44
2023-08-11T23:56:56.874Z,100480.28
2023-08-11T23:59:42.560Z,100470.97
